TimePST,TemperatureF,Dew PointF,Humidity,Sea Level PressureIn,VisibilityMPH,Wind Direction,Wind SpeedMPH,Gust SpeedMPH,PrecipitationIn,Events,Conditions,WindDirDegrees,DateUTC
12:55 AM,36.0,23.0,59,30.06,10.0,NNW,6.9,-,0.00,,Clear,340,2013-11-04 08:55:00
1:55 AM,34.0,23.0,64,30.06,10.0,WNW,4.6,-,N/A,,Clear,300,2013-11-04 09:55:00
2:55 AM,33.1,21.9,64,30.08,10.0,NNW,5.8,-,0.00,,Clear,330,2013-11-04 10:55:00
3:55 AM,32.0,21.9,66,30.08,10.0,NNW,8.1,-,N/A,,Clear,340,2013-11-04 11:55:00
4:55 AM,33.1,21.9,64,30.10,10.0,NW,10.4,-,N/A,,Clear,320,2013-11-04 12:55:00
5:55 AM,34.0,21.9,61,30.12,10.0,NNW,8.1,-,0.00,,Clear,330,2013-11-04 13:55:00
6:55 AM,33.1,21.9,64,30.14,9.0,NNW,5.8,-,0.00,,Clear,330,2013-11-04 14:55:00
7:55 AM,32.0,23.0,69,30.15,9.0,NW,3.5,-,0.00,Snow,Light Snow,310,2013-11-04 15:55:00
8:55 AM,35.1,25.0,67,30.16,9.0,West,4.6,-,0.00,Snow,Light Snow,260,2013-11-04 16:55:00
9:55 AM,39.9,21.9,49,30.16,10.0,West,5.8,-,0.00,,Clear,280,2013-11-04 17:55:00
10:55 AM,42.1,21.0,43,30.17,10.0,West,5.8,-,N/A,,Clear,280,2013-11-04 18:55:00
11:55 AM,44.1,21.9,42,30.15,10.0,Calm,Calm,-,N/A,,Clear,0,2013-11-04 19:55:00
12:55 PM,46.0,19.9,35,30.14,10.0,Calm,Calm,-,N/A,,Clear,0,2013-11-04 20:55:00
1:55 PM,46.9,18.0,32,30.13,10.0,North,-9999.0,-,N/A,,Clear,0,2013-11-04 21:55:00
2:55 PM,46.9,14.0,27,30.13,10.0,SE,8.1,-,N/A,,Clear,140,2013-11-04 22:55:00
3:55 PM,45.0,17.1,33,30.14,10.0,ESE,4.6,-,N/A,,Clear,120,2013-11-04 23:55:00
4:55 PM,43.0,17.1,35,30.14,10.0,SE,4.6,-,N/A,,Clear,130,2013-11-05 00:55:00
5:55 PM,42.1,19.0,40,30.15,10.0,ESE,6.9,-,N/A,,Clear,110,2013-11-05 01:55:00
6:55 PM,39.0,21.0,49,30.16,10.0,East,4.6,-,N/A,,Partly Cloudy,80,2013-11-05 02:55:00
7:55 PM,39.0,21.0,49,30.15,10.0,ENE,5.8,-,N/A,,Mostly Cloudy,70,2013-11-05 03:55:00
8:55 PM,37.9,21.9,53,30.16,10.0,ENE,5.8,-,N/A,,Mostly Cloudy,70,2013-11-05 04:55:00
9:55 PM,39.9,21.0,47,30.16,10.0,Calm,Calm,-,N/A,,Overcast,0,2013-11-05 05:55:00
10:55 PM,39.0,23.0,53,30.15,10.0,Calm,Calm,-,N/A,,Overcast,0,2013-11-05 06:55:00
11:55 PM,37.9,23.0,55,30.14,10.0,Calm,Calm,-,N/A,,Overcast,0,2013-11-05 07:55:00